sensor_id;sensor_type;location;lat;lon;timestamp;P1;durP1;ratioP1;P2;durP2;ratioP2
1428;SDS011;708;51.442;7.016;2022-07-11T00:02:11;5.50;;;3.80;;
1428;SDS011;708;51.442;7.016;2022-07-11T00:04:38;4.25;;;3.65;;
1428;SDS011;708;51.442;7.016;2022-07-11T00:07:05;7.88;;;3.55;;
1428;SDS011;708;51.442;7.016;2022-07-11T00:09:33;8.38;;;4.25;;
1428;SDS011;708;51.442;7.016;2022-07-11T00:11:59;3.95;;;2.65;;
1428;SDS011;708;51.442;7.016;2022-07-11T00:14:27;7.45;;;3.88;;
1428;SDS011;708;51.442;7.016;2022-07-11T00:16:54;4.35;;;3.35;;
1428;SDS011;708;51.442;7.016;2022-07-11T00:19:23;8.48;;;4.07;;
1428;SDS011;708;51.442;7.016;2022-07-11T00:21:50;5.15;;;3.20;;
1428;SDS011;708;51.442;7.016;2022-07-11T00:24:17;6.25;;;4.05;;
1428;SDS011;708;51.442;7.016;2022-07-11T00:26:45;5.22;;;3.33;;
1428;SDS011;708;51.442;7.016;2022-07-11T00:29:12;5.97;;;3.70;;
1428;SDS011;708;51.442;7.016;2022-07-11T00:31:39;6.15;;;4.30;;
1428;SDS011;708;51.442;7.016;2022-07-11T00:34:06;5.18;;;3.20;;
1428;SDS011;708;51.442;7.016;2022-07-11T00:36:34;5.70;;;3.50;;
1428;SDS011;708;51.442;7.016;2022-07-11T00:39:02;5.28;;;3.30;;
1428;SDS011;708;51.442;7.016;2022-07-11T00:41:30;6.40;;;3.88;;
1428;SDS011;708;51.442;7.016;2022-07-11T00:43:58;5.75;;;3.85;;
1428;SDS011;708;51.442;7.016;2022-07-11T00:46:26;4.25;;;3.30;;
1428;SDS011;708;51.442;7.016;2022-07-11T00:48:55;6.30;;;3.72;;
1428;SDS011;708;51.442;7.016;2022-07-11T00:51:22;5.95;;;4.50;;
1428;SDS011;708;51.442;7.016;2022-07-11T00:53:52;10.20;;;4.57;;
1428;SDS011;708;51.442;7.016;2022-07-11T00:56:20;5.60;;;3.63;;
1428;SDS011;708;51.442;7.016;2022-07-11T00:58:47;4.25;;;3.67;;
1428;SDS011;708;51.442;7.016;2022-07-11T01:01:15;4.20;;;3.35;;
1428;SDS011;708;51.442;7.016;2022-07-11T01:03:42;4.57;;;3.20;;
1428;SDS011;708;51.442;7.016;2022-07-11T01:06:09;6.80;;;3.20;;
1428;SDS011;708;51.442;7.016;2022-07-11T01:08:37;4.70;;;3.20;;
1428;SDS011;708;51.442;7.016;2022-07-11T01:11:07;5.35;;;3.22;;
1428;SDS011;708;51.442;7.016;2022-07-11T01:13:38;7.55;;;3.55;;
1428;SDS011;708;51.442;7.016;2022-07-11T01:16:12;5.80;;;3.25;;
1428;SDS011;708;51.442;7.016;2022-07-11T01:18:40;5.88;;;3.60;;
1428;SDS011;708;51.442;7.016;2022-07-11T01:21:18;9.45;;;4.07;;
1428;SDS011;708;51.442;7.016;2022-07-11T01:23:50;4.75;;;3.15;;
1428;SDS011;708;51.442;7.016;2022-07-11T01:26:18;8.82;;;3.80;;
1428;SDS011;708;51.442;7.016;2022-07-11T01:28:47;7.78;;;3.35;;
1428;SDS011;708;51.442;7.016;2022-07-11T01:31:15;5.30;;;3.30;;
1428;SDS011;708;51.442;7.016;2022-07-11T01:33:42;6.63;;;3.25;;
1428;SDS011;708;51.442;7.016;2022-07-11T01:36:09;5.25;;;3.65;;
1428;SDS011;708;51.442;7.016;2022-07-11T01:38:37;6.00;;;3.25;;
1428;SDS011;708;51.442;7.016;2022-07-11T01:41:05;6.43;;;3.35;;
1428;SDS011;708;51.442;7.016;2022-07-11T01:43:32;5.40;;;3.20;;
1428;SDS011;708;51.442;7.016;2022-07-11T01:45:59;6.13;;;3.58;;
1428;SDS011;708;51.442;7.016;2022-07-11T01:48:26;6.07;;;3.45;;
1428;SDS011;708;51.442;7.016;2022-07-11T01:50:54;5.80;;;3.53;;
1428;SDS011;708;51.442;7.016;2022-07-11T01:53:21;3.50;;;2.50;;
1428;SDS011;708;51.442;7.016;2022-07-11T01:55:48;11.18;;;3.85;;
1428;SDS011;708;51.442;7.016;2022-07-11T01:58:16;7.78;;;3.40;;
1428;SDS011;708;51.442;7.016;2022-07-11T02:00:43;4.35;;;2.95;;
1428;SDS011;708;51.442;7.016;2022-07-11T02:03:10;7.70;;;3.85;;
1428;SDS011;708;51.442;7.016;2022-07-11T02:05:37;7.70;;;3.75;;
1428;SDS011;708;51.442;7.016;2022-07-11T02:08:05;4.28;;;3.50;;
1428;SDS011;708;51.442;7.016;2022-07-11T02:10:40;3.08;;;2.78;;
1428;SDS011;708;51.442;7.016;2022-07-11T02:13:08;9.60;;;2.95;;
1428;SDS011;708;51.442;7.016;2022-07-11T02:15:37;9.25;;;3.38;;
1428;SDS011;708;51.442;7.016;2022-07-11T02:18:05;3.85;;;2.67;;
1428;SDS011;708;51.442;7.016;2022-07-11T02:20:33;5.63;;;3.20;;
1428;SDS011;708;51.442;7.016;2022-07-11T02:23:01;4.90;;;2.85;;
1428;SDS011;708;51.442;7.016;2022-07-11T02:25:28;6.90;;;3.15;;
1428;SDS011;708;51.442;7.016;2022-07-11T02:27:56;3.70;;;3.20;;
1428;SDS011;708;51.442;7.016;2022-07-11T02:30:23;4.65;;;2.95;;
1428;SDS011;708;51.442;7.016;2022-07-11T02:32:52;3.05;;;2.72;;
1428;SDS011;708;51.442;7.016;2022-07-11T02:35:19;7.35;;;3.47;;
1428;SDS011;708;51.442;7.016;2022-07-11T02:37:46;5.75;;;3.15;;
1428;SDS011;708;51.442;7.016;2022-07-11T02:40:13;3.83;;;3.05;;
1428;SDS011;708;51.442;7.016;2022-07-11T02:42:40;5.60;;;3.00;;
1428;SDS011;708;51.442;7.016;2022-07-11T02:45:07;6.38;;;3.50;;
1428;SDS011;708;51.442;7.016;2022-07-11T02:47:35;6.38;;;2.95;;
1428;SDS011;708;51.442;7.016;2022-07-11T02:50:05;8.25;;;3.08;;
1428;SDS011;708;51.442;7.016;2022-07-11T02:52:33;5.95;;;3.45;;
1428;SDS011;708;51.442;7.016;2022-07-11T02:55:00;9.07;;;3.28;;
1428;SDS011;708;51.442;7.016;2022-07-11T02:57:27;6.65;;;3.65;;
1428;SDS011;708;51.442;7.016;2022-07-11T02:59:54;6.05;;;3.20;;
1428;SDS011;708;51.442;7.016;2022-07-11T03:02:21;3.83;;;2.90;;
1428;SDS011;708;51.442;7.016;2022-07-11T03:04:48;7.13;;;3.40;;
1428;SDS011;708;51.442;7.016;2022-07-11T03:07:16;4.95;;;2.53;;
1428;SDS011;708;51.442;7.016;2022-07-11T03:09:43;6.72;;;3.33;;
1428;SDS011;708;51.442;7.016;2022-07-11T03:12:09;4.10;;;3.20;;
1428;SDS011;708;51.442;7.016;2022-07-11T03:14:36;6.25;;;3.40;;
1428;SDS011;708;51.442;7.016;2022-07-11T03:17:03;6.50;;;3.53;;
1428;SDS011;708;51.442;7.016;2022-07-11T03:19:30;6.78;;;3.45;;
1428;SDS011;708;51.442;7.016;2022-07-11T03:21:57;3.67;;;2.78;;
1428;SDS011;708;51.442;7.016;2022-07-11T03:24:25;4.57;;;3.70;;
1428;SDS011;708;51.442;7.016;2022-07-11T03:26:52;5.63;;;3.65;;
1428;SDS011;708;51.442;7.016;2022-07-11T03:29:19;8.15;;;3.00;;
1428;SDS011;708;51.442;7.016;2022-07-11T03:31:46;3.50;;;2.42;;
1428;SDS011;708;51.442;7.016;2022-07-11T03:34:16;5.75;;;3.08;;
1428;SDS011;708;51.442;7.016;2022-07-11T03:36:43;6.28;;;3.10;;
1428;SDS011;708;51.442;7.016;2022-07-11T03:39:11;3.95;;;2.40;;
1428;SDS011;708;51.442;7.016;2022-07-11T03:41:39;4.95;;;2.40;;
1428;SDS011;708;51.442;7.016;2022-07-11T03:44:06;5.75;;;2.53;;
1428;SDS011;708;51.442;7.016;2022-07-11T03:46:33;3.45;;;1.90;;
1428;SDS011;708;51.442;7.016;2022-07-11T03:49:00;6.90;;;3.03;;
1428;SDS011;708;51.442;7.016;2022-07-11T03:51:27;3.65;;;2.33;;
1428;SDS011;708;51.442;7.016;2022-07-11T03:53:54;2.55;;;2.15;;
1428;SDS011;708;51.442;7.016;2022-07-11T03:56:21;5.40;;;1.95;;
1428;SDS011;708;51.442;7.016;2022-07-11T03:58:49;2.65;;;1.80;;
1428;SDS011;708;51.442;7.016;2022-07-11T04:01:16;2.95;;;1.83;;
1428;SDS011;708;51.442;7.016;2022-07-11T04:03:44;4.80;;;1.77;;
1428;SDS011;708;51.442;7.016;2022-07-11T04:06:11;2.30;;;1.70;;
1428;SDS011;708;51.442;7.016;2022-07-11T04:08:38;1.92;;;1.40;;
1428;SDS011;708;51.442;7.016;2022-07-11T04:11:05;1.92;;;1.58;;
1428;SDS011;708;51.442;7.016;2022-07-11T04:13:32;2.85;;;1.70;;
1428;SDS011;708;51.442;7.016;2022-07-11T04:16:00;2.42;;;1.75;;
1428;SDS011;708;51.442;7.016;2022-07-11T04:18:27;4.88;;;2.28;;
1428;SDS011;708;51.442;7.016;2022-07-11T04:20:54;2.90;;;2.10;;
1428;SDS011;708;51.442;7.016;2022-07-11T04:23:21;3.88;;;2.45;;
1428;SDS011;708;51.442;7.016;2022-07-11T04:25:48;3.60;;;2.08;;
1428;SDS011;708;51.442;7.016;2022-07-11T04:28:15;3.20;;;1.80;;
1428;SDS011;708;51.442;7.016;2022-07-11T04:30:41;3.75;;;1.95;;
1428;SDS011;708;51.442;7.016;2022-07-11T04:33:09;3.00;;;2.15;;
1428;SDS011;708;51.442;7.016;2022-07-11T04:35:36;6.72;;;2.30;;
1428;SDS011;708;51.442;7.016;2022-07-11T04:38:03;2.33;;;2.05;;
1428;SDS011;708;51.442;7.016;2022-07-11T04:40:30;3.55;;;2.35;;
1428;SDS011;708;51.442;7.016;2022-07-11T04:42:57;4.85;;;2.53;;
1428;SDS011;708;51.442;7.016;2022-07-11T04:45:24;3.05;;;2.60;;
1428;SDS011;708;51.442;7.016;2022-07-11T04:47:51;5.85;;;2.22;;
1428;SDS011;708;51.442;7.016;2022-07-11T04:50:19;12.35;;;4.57;;
1428;SDS011;708;51.442;7.016;2022-07-11T04:52:45;4.65;;;2.50;;
1428;SDS011;708;51.442;7.016;2022-07-11T04:55:12;3.22;;;2.30;;
1428;SDS011;708;51.442;7.016;2022-07-11T04:57:39;3.08;;;2.15;;
1428;SDS011;708;51.442;7.016;2022-07-11T05:00:06;2.40;;;1.92;;
1428;SDS011;708;51.442;7.016;2022-07-11T05:02:34;5.53;;;1.88;;
1428;SDS011;708;51.442;7.016;2022-07-11T05:05:00;6.25;;;3.17;;
1428;SDS011;708;51.442;7.016;2022-07-11T05:07:29;1.83;;;1.40;;
1428;SDS011;708;51.442;7.016;2022-07-11T05:09:56;1.77;;;1.50;;
1428;SDS011;708;51.442;7.016;2022-07-11T05:12:23;1.88;;;1.65;;
1428;SDS011;708;51.442;7.016;2022-07-11T05:14:49;3.67;;;1.73;;
1428;SDS011;708;51.442;7.016;2022-07-11T05:17:17;1.88;;;1.38;;
1428;SDS011;708;51.442;7.016;2022-07-11T05:19:44;1.50;;;1.25;;
1428;SDS011;708;51.442;7.016;2022-07-11T05:22:11;1.98;;;1.15;;
1428;SDS011;708;51.442;7.016;2022-07-11T05:24:39;3.25;;;1.40;;
1428;SDS011;708;51.442;7.016;2022-07-11T05:27:06;2.65;;;1.30;;
1428;SDS011;708;51.442;7.016;2022-07-11T05:29:33;4.65;;;1.55;;
1428;SDS011;708;51.442;7.016;2022-07-11T05:32:00;8.05;;;1.90;;
1428;SDS011;708;51.442;7.016;2022-07-11T05:34:27;1.50;;;1.17;;
1428;SDS011;708;51.442;7.016;2022-07-11T05:36:54;6.43;;;3.75;;
1428;SDS011;708;51.442;7.016;2022-07-11T05:39:21;2.97;;;1.42;;
1428;SDS011;708;51.442;7.016;2022-07-11T05:41:49;3.55;;;1.13;;
1428;SDS011;708;51.442;7.016;2022-07-11T05:44:16;5.70;;;1.70;;
1428;SDS011;708;51.442;7.016;2022-07-11T05:46:44;4.80;;;1.45;;
1428;SDS011;708;51.442;7.016;2022-07-11T05:49:11;4.10;;;1.00;;
1428;SDS011;708;51.442;7.016;2022-07-11T05:51:38;1.95;;;1.30;;
1428;SDS011;708;51.442;7.016;2022-07-11T05:54:05;2.72;;;1.55;;
1428;SDS011;708;51.442;7.016;2022-07-11T05:56:32;2.20;;;1.40;;
1428;SDS011;708;51.442;7.016;2022-07-11T05:59:01;4.60;;;1.30;;
1428;SDS011;708;51.442;7.016;2022-07-11T06:01:27;2.00;;;1.00;;
1428;SDS011;708;51.442;7.016;2022-07-11T06:03:56;2.10;;;1.38;;
1428;SDS011;708;51.442;7.016;2022-07-11T06:06:23;1.80;;;1.45;;
1428;SDS011;708;51.442;7.016;2022-07-11T06:08:50;3.15;;;1.30;;
1428;SDS011;708;51.442;7.016;2022-07-11T06:11:19;1.70;;;1.40;;
1428;SDS011;708;51.442;7.016;2022-07-11T06:13:45;6.00;;;2.10;;
1428;SDS011;708;51.442;7.016;2022-07-11T06:16:15;3.55;;;2.85;;
1428;SDS011;708;51.442;7.016;2022-07-11T06:18:43;3.13;;;2.30;;
1428;SDS011;708;51.442;7.016;2022-07-11T06:21:10;3.15;;;2.38;;
1428;SDS011;708;51.442;7.016;2022-07-11T06:23:37;3.58;;;2.42;;
1428;SDS011;708;51.442;7.016;2022-07-11T06:26:05;2.13;;;1.77;;
1428;SDS011;708;51.442;7.016;2022-07-11T06:28:33;4.57;;;2.20;;
1428;SDS011;708;51.442;7.016;2022-07-11T06:31:05;3.20;;;1.60;;
1428;SDS011;708;51.442;7.016;2022-07-11T06:33:33;2.80;;;1.80;;
1428;SDS011;708;51.442;7.016;2022-07-11T06:36:01;3.70;;;1.50;;
1428;SDS011;708;51.442;7.016;2022-07-11T06:38:28;2.40;;;1.30;;
1428;SDS011;708;51.442;7.016;2022-07-11T06:40:55;4.72;;;1.85;;
1428;SDS011;708;51.442;7.016;2022-07-11T06:43:22;3.47;;;1.40;;
1428;SDS011;708;51.442;7.016;2022-07-11T06:45:49;2.25;;;1.60;;
1428;SDS011;708;51.442;7.016;2022-07-11T06:48:16;2.42;;;1.27;;
1428;SDS011;708;51.442;7.016;2022-07-11T06:50:47;2.30;;;1.52;;
1428;SDS011;708;51.442;7.016;2022-07-11T06:53:14;3.07;;;1.60;;
1428;SDS011;708;51.442;7.016;2022-07-11T06:55:41;3.10;;;2.53;;
1428;SDS011;708;51.442;7.016;2022-07-11T06:58:07;6.73;;;2.50;;
1428;SDS011;708;51.442;7.016;2022-07-11T07:00:34;2.10;;;1.33;;
1428;SDS011;708;51.442;7.016;2022-07-11T07:03:01;2.43;;;1.93;;
1428;SDS011;708;51.442;7.016;2022-07-11T07:05:28;2.33;;;1.70;;
1428;SDS011;708;51.442;7.016;2022-07-11T07:07:56;2.30;;;2.10;;
1428;SDS011;708;51.442;7.016;2022-07-11T07:10:23;3.80;;;2.30;;
1428;SDS011;708;51.442;7.016;2022-07-11T07:12:50;5.07;;;2.70;;
1428;SDS011;708;51.442;7.016;2022-07-11T07:15:17;2.70;;;1.47;;
1428;SDS011;708;51.442;7.016;2022-07-11T07:17:44;2.33;;;2.00;;
1428;SDS011;708;51.442;7.016;2022-07-11T07:20:11;4.93;;;3.13;;
1428;SDS011;708;51.442;7.016;2022-07-11T07:22:38;9.67;;;2.40;;
1428;SDS011;708;51.442;7.016;2022-07-11T07:25:07;4.90;;;2.50;;
1428;SDS011;708;51.442;7.016;2022-07-11T07:27:35;8.00;;;3.20;;
1428;SDS011;708;51.442;7.016;2022-07-11T07:30:02;7.90;;;3.00;;
1428;SDS011;708;51.442;7.016;2022-07-11T07:32:29;3.23;;;2.93;;
1428;SDS011;708;51.442;7.016;2022-07-11T07:34:56;2.85;;;1.50;;
1428;SDS011;708;51.442;7.016;2022-07-11T07:37:24;6.25;;;2.63;;
1428;SDS011;708;51.442;7.016;2022-07-11T07:39:50;4.05;;;2.45;;
1428;SDS011;708;51.442;7.016;2022-07-11T07:42:19;3.83;;;2.30;;
1428;SDS011;708;51.442;7.016;2022-07-11T07:44:45;4.45;;;2.50;;
1428;SDS011;708;51.442;7.016;2022-07-11T07:47:12;3.50;;;1.63;;
1428;SDS011;708;51.442;7.016;2022-07-11T07:49:39;4.20;;;1.83;;
1428;SDS011;708;51.442;7.016;2022-07-11T07:52:06;3.27;;;1.43;;
1428;SDS011;708;51.442;7.016;2022-07-11T07:54:33;2.13;;;1.70;;
1428;SDS011;708;51.442;7.016;2022-07-11T07:57:00;2.07;;;1.53;;
1428;SDS011;708;51.442;7.016;2022-07-11T07:59:28;3.00;;;1.53;;
1428;SDS011;708;51.442;7.016;2022-07-11T08:01:55;3.20;;;1.97;;
1428;SDS011;708;51.442;7.016;2022-07-11T08:04:21;3.60;;;3.27;;
1428;SDS011;708;51.442;7.016;2022-07-11T08:06:48;7.97;;;5.37;;
1428;SDS011;708;51.442;7.016;2022-07-11T08:09:15;7.93;;;7.10;;
1428;SDS011;708;51.442;7.016;2022-07-11T08:11:42;15.50;;;13.80;;
1428;SDS011;708;51.442;7.016;2022-07-11T08:14:09;15.53;;;14.07;;
1428;SDS011;708;51.442;7.016;2022-07-11T08:16:37;16.40;;;14.90;;
1428;SDS011;708;51.442;7.016;2022-07-11T08:19:06;14.50;;;13.20;;
1428;SDS011;708;51.442;7.016;2022-07-11T08:21:33;12.53;;;11.43;;
1428;SDS011;708;51.442;7.016;2022-07-11T08:24:00;10.57;;;9.43;;
1428;SDS011;708;51.442;7.016;2022-07-11T08:26:28;8.87;;;7.70;;
1428;SDS011;708;51.442;7.016;2022-07-11T08:28:55;5.83;;;5.10;;
1428;SDS011;708;51.442;7.016;2022-07-11T08:31:22;5.30;;;4.80;;
1428;SDS011;708;51.442;7.016;2022-07-11T08:33:50;5.40;;;4.80;;
1428;SDS011;708;51.442;7.016;2022-07-11T08:36:17;7.80;;;7.10;;
1428;SDS011;708;51.442;7.016;2022-07-11T08:38:44;8.70;;;7.90;;
1428;SDS011;708;51.442;7.016;2022-07-11T08:41:12;8.67;;;7.87;;
1428;SDS011;708;51.442;7.016;2022-07-11T08:43:40;7.27;;;6.57;;
1428;SDS011;708;51.442;7.016;2022-07-11T08:46:08;6.33;;;5.83;;
1428;SDS011;708;51.442;7.016;2022-07-11T08:48:37;7.77;;;7.07;;
1428;SDS011;708;51.442;7.016;2022-07-11T08:51:07;6.57;;;6.00;;
1428;SDS011;708;51.442;7.016;2022-07-11T08:53:37;7.50;;;6.80;;
1428;SDS011;708;51.442;7.016;2022-07-11T08:56:08;6.97;;;6.37;;
1428;SDS011;708;51.442;7.016;2022-07-11T08:58:40;6.97;;;5.90;;
1428;SDS011;708;51.442;7.016;2022-07-11T09:01:09;5.20;;;4.80;;
1428;SDS011;708;51.442;7.016;2022-07-11T09:03:36;4.87;;;4.47;;
1428;SDS011;708;51.442;7.016;2022-07-11T09:06:03;5.00;;;4.13;;
1428;SDS011;708;51.442;7.016;2022-07-11T09:08:34;4.93;;;4.10;;
1428;SDS011;708;51.442;7.016;2022-07-11T09:11:01;10.03;;;3.77;;
1428;SDS011;708;51.442;7.016;2022-07-11T09:13:29;3.90;;;3.50;;
1428;SDS011;708;51.442;7.016;2022-07-11T09:16:00;6.03;;;3.20;;
1428;SDS011;708;51.442;7.016;2022-07-11T09:18:29;8.17;;;3.47;;
1428;SDS011;708;51.442;7.016;2022-07-11T09:20:58;2.33;;;2.10;;
1428;SDS011;708;51.442;7.016;2022-07-11T09:23:45;3.50;;;3.20;;
1428;SDS011;708;51.442;7.016;2022-07-11T09:26:29;5.37;;;3.50;;
1428;SDS011;708;51.442;7.016;2022-07-11T09:28:58;4.20;;;3.23;;
1428;SDS011;708;51.442;7.016;2022-07-11T09:31:26;3.70;;;3.27;;
1428;SDS011;708;51.442;7.016;2022-07-11T09:33:58;4.27;;;2.90;;
1428;SDS011;708;51.442;7.016;2022-07-11T09:36:33;3.43;;;2.63;;
1428;SDS011;708;51.442;7.016;2022-07-11T09:39:12;3.10;;;2.40;;
1428;SDS011;708;51.442;7.016;2022-07-11T09:41:40;5.20;;;2.53;;
1428;SDS011;708;51.442;7.016;2022-07-11T09:44:14;3.43;;;1.70;;
1428;SDS011;708;51.442;7.016;2022-07-11T09:46:43;3.00;;;2.13;;
1428;SDS011;708;51.442;7.016;2022-07-11T09:49:11;4.47;;;3.63;;
1428;SDS011;708;51.442;7.016;2022-07-11T09:51:38;3.93;;;2.27;;
1428;SDS011;708;51.442;7.016;2022-07-11T09:54:07;5.50;;;5.00;;
1428;SDS011;708;51.442;7.016;2022-07-11T09:56:37;4.93;;;4.53;;
1428;SDS011;708;51.442;7.016;2022-07-11T09:59:06;3.50;;;3.20;;
1428;SDS011;708;51.442;7.016;2022-07-11T10:01:34;3.73;;;3.43;;
1428;SDS011;708;51.442;7.016;2022-07-11T10:04:00;5.00;;;4.60;;
1428;SDS011;708;51.442;7.016;2022-07-11T10:06:28;5.53;;;4.30;;
1428;SDS011;708;51.442;7.016;2022-07-11T10:08:54;4.47;;;4.07;;
1428;SDS011;708;51.442;7.016;2022-07-11T10:11:22;3.10;;;2.80;;
1428;SDS011;708;51.442;7.016;2022-07-11T10:13:50;2.63;;;2.40;;
1428;SDS011;708;51.442;7.016;2022-07-11T10:16:22;3.30;;;2.47;;
1428;SDS011;708;51.442;7.016;2022-07-11T10:18:53;2.83;;;2.00;;
1428;SDS011;708;51.442;7.016;2022-07-11T10:21:31;4.10;;;1.60;;
1428;SDS011;708;51.442;7.016;2022-07-11T10:24:08;1.70;;;1.13;;
1428;SDS011;708;51.442;7.016;2022-07-11T10:26:51;3.00;;;2.30;;
1428;SDS011;708;51.442;7.016;2022-07-11T10:29:27;2.97;;;2.67;;
1428;SDS011;708;51.442;7.016;2022-07-11T10:32:06;3.30;;;3.00;;
1428;SDS011;708;51.442;7.016;2022-07-11T10:34:42;4.63;;;4.23;;
1428;SDS011;708;51.442;7.016;2022-07-11T10:37:10;11.87;;;10.87;;
1428;SDS011;708;51.442;7.016;2022-07-11T10:39:37;19.47;;;17.97;;
1428;SDS011;708;51.442;7.016;2022-07-11T10:42:13;18.07;;;16.33;;
1428;SDS011;708;51.442;7.016;2022-07-11T10:44:48;15.10;;;13.90;;
1428;SDS011;708;51.442;7.016;2022-07-11T10:47:32;10.40;;;9.40;;
1428;SDS011;708;51.442;7.016;2022-07-11T10:50:07;7.13;;;6.53;;
1428;SDS011;708;51.442;7.016;2022-07-11T10:52:39;7.80;;;7.20;;
1428;SDS011;708;51.442;7.016;2022-07-11T10:55:15;6.53;;;6.03;;
1428;SDS011;708;51.442;7.016;2022-07-11T10:57:56;8.67;;;5.13;;
1428;SDS011;708;51.442;7.016;2022-07-11T11:00:32;5.90;;;4.67;;
1428;SDS011;708;51.442;7.016;2022-07-11T11:03:00;5.43;;;4.93;;
1428;SDS011;708;51.442;7.016;2022-07-11T11:05:39;4.20;;;3.60;;
1428;SDS011;708;51.442;7.016;2022-07-11T11:14:21;3.80;;;3.50;;
1428;SDS011;708;51.442;7.016;2022-07-11T11:16:52;3.70;;;3.40;;
1428;SDS011;708;51.442;7.016;2022-07-11T11:22:22;2.20;;;1.90;;
1428;SDS011;708;51.442;7.016;2022-07-11T11:24:51;5.63;;;4.10;;
1428;SDS011;708;51.442;7.016;2022-07-11T11:27:20;5.27;;;4.87;;
1428;SDS011;708;51.442;7.016;2022-07-11T11:29:51;4.90;;;4.40;;
1428;SDS011;708;51.442;7.016;2022-07-11T11:32:20;5.20;;;4.80;;
1428;SDS011;708;51.442;7.016;2022-07-11T11:34:48;4.50;;;4.10;;
1428;SDS011;708;51.442;7.016;2022-07-11T11:37:16;4.93;;;4.53;;
1428;SDS011;708;51.442;7.016;2022-07-11T11:39:44;4.97;;;4.50;;
1428;SDS011;708;51.442;7.016;2022-07-11T11:42:15;6.10;;;5.60;;
1428;SDS011;708;51.442;7.016;2022-07-11T11:45:02;7.33;;;6.73;;
1428;SDS011;708;51.442;7.016;2022-07-11T11:47:45;4.90;;;4.50;;
1428;SDS011;708;51.442;7.016;2022-07-11T11:50:13;4.40;;;4.00;;
1428;SDS011;708;51.442;7.016;2022-07-11T11:52:40;5.30;;;4.63;;
1428;SDS011;708;51.442;7.016;2022-07-11T11:55:08;2.97;;;2.33;;
1428;SDS011;708;51.442;7.016;2022-07-11T11:57:36;2.50;;;1.67;;
1428;SDS011;708;51.442;7.016;2022-07-11T12:00:13;4.77;;;1.93;;
1428;SDS011;708;51.442;7.016;2022-07-11T12:02:49;2.20;;;1.30;;
1428;SDS011;708;51.442;7.016;2022-07-11T12:05:16;2.90;;;1.53;;
1428;SDS011;708;51.442;7.016;2022-07-11T12:07:43;1.93;;;1.30;;
1428;SDS011;708;51.442;7.016;2022-07-11T12:10:10;2.20;;;1.40;;
1428;SDS011;708;51.442;7.016;2022-07-11T12:12:40;2.20;;;1.17;;
1428;SDS011;708;51.442;7.016;2022-07-11T12:15:24;2.50;;;1.50;;
1428;SDS011;708;51.442;7.016;2022-07-11T12:17:59;2.43;;;2.10;;
1428;SDS011;708;51.442;7.016;2022-07-11T12:20:34;2.40;;;1.40;;
1428;SDS011;708;51.442;7.016;2022-07-11T12:23:03;2.57;;;1.63;;
1428;SDS011;708;51.442;7.016;2022-07-11T12:25:31;2.90;;;1.57;;
1428;SDS011;708;51.442;7.016;2022-07-11T12:27:59;2.50;;;1.70;;
1428;SDS011;708;51.442;7.016;2022-07-11T12:30:26;3.60;;;2.20;;
1428;SDS011;708;51.442;7.016;2022-07-11T12:33:04;2.70;;;1.80;;
1428;SDS011;708;51.442;7.016;2022-07-11T12:35:32;2.33;;;1.70;;
1428;SDS011;708;51.442;7.016;2022-07-11T12:38:02;2.03;;;1.40;;
1428;SDS011;708;51.442;7.016;2022-07-11T12:40:30;3.10;;;2.50;;
1428;SDS011;708;51.442;7.016;2022-07-11T12:42:57;3.83;;;2.07;;
1428;SDS011;708;51.442;7.016;2022-07-11T12:45:24;3.80;;;2.37;;
1428;SDS011;708;51.442;7.016;2022-07-11T12:47:50;4.70;;;4.30;;
1428;SDS011;708;51.442;7.016;2022-07-11T12:50:23;4.13;;;3.83;;
1428;SDS011;708;51.442;7.016;2022-07-11T12:52:51;5.07;;;4.57;;
1428;SDS011;708;51.442;7.016;2022-07-11T12:55:21;5.43;;;4.90;;
1428;SDS011;708;51.442;7.016;2022-07-11T12:58:05;6.73;;;4.97;;
1428;SDS011;708;51.442;7.016;2022-07-11T13:00:34;6.90;;;5.30;;
1428;SDS011;708;51.442;7.016;2022-07-11T13:03:02;5.33;;;4.93;;
1428;SDS011;708;51.442;7.016;2022-07-11T13:05:32;5.93;;;5.50;;
1428;SDS011;708;51.442;7.016;2022-07-11T13:08:21;3.93;;;3.13;;
1428;SDS011;708;51.442;7.016;2022-07-11T13:11:06;2.83;;;1.80;;
1428;SDS011;708;51.442;7.016;2022-07-11T13:13:33;2.37;;;1.40;;
1428;SDS011;708;51.442;7.016;2022-07-11T13:16:00;3.07;;;1.60;;
1428;SDS011;708;51.442;7.016;2022-07-11T13:18:29;2.63;;;2.03;;
1428;SDS011;708;51.442;7.016;2022-07-11T13:20:58;1.80;;;1.30;;
1428;SDS011;708;51.442;7.016;2022-07-11T13:23:25;1.87;;;1.40;;
1428;SDS011;708;51.442;7.016;2022-07-11T13:25:52;1.83;;;1.30;;
1428;SDS011;708;51.442;7.016;2022-07-11T13:28:19;2.57;;;1.33;;
1428;SDS011;708;51.442;7.016;2022-07-11T13:30:48;1.97;;;1.60;;
1428;SDS011;708;51.442;7.016;2022-07-11T13:33:15;1.70;;;1.23;;
1428;SDS011;708;51.442;7.016;2022-07-11T13:35:42;1.50;;;1.27;;
1428;SDS011;708;51.442;7.016;2022-07-11T13:38:10;1.93;;;1.37;;
1428;SDS011;708;51.442;7.016;2022-07-11T13:40:37;1.50;;;0.93;;
1428;SDS011;708;51.442;7.016;2022-07-11T13:43:04;3.50;;;1.30;;
1428;SDS011;708;51.442;7.016;2022-07-11T13:45:31;4.60;;;1.00;;
1428;SDS011;708;51.442;7.016;2022-07-11T13:47:58;2.87;;;1.80;;
1428;SDS011;708;51.442;7.016;2022-07-11T13:50:26;1.87;;;1.20;;
1428;SDS011;708;51.442;7.016;2022-07-11T13:52:52;1.57;;;1.10;;
1428;SDS011;708;51.442;7.016;2022-07-11T13:55:22;1.97;;;1.43;;
1428;SDS011;708;51.442;7.016;2022-07-11T13:57:53;2.03;;;1.23;;
1428;SDS011;708;51.442;7.016;2022-07-11T14:00:21;2.70;;;1.20;;
1428;SDS011;708;51.442;7.016;2022-07-11T14:02:49;1.90;;;1.10;;
1428;SDS011;708;51.442;7.016;2022-07-11T14:05:16;1.70;;;1.10;;
1428;SDS011;708;51.442;7.016;2022-07-11T14:07:44;1.97;;;1.33;;
1428;SDS011;708;51.442;7.016;2022-07-11T14:10:11;2.20;;;1.70;;
1428;SDS011;708;51.442;7.016;2022-07-11T14:12:40;2.73;;;1.73;;
1428;SDS011;708;51.442;7.016;2022-07-11T14:15:07;2.33;;;1.70;;
1428;SDS011;708;51.442;7.016;2022-07-11T14:17:35;2.10;;;1.90;;
1428;SDS011;708;51.442;7.016;2022-07-11T14:20:02;1.70;;;1.40;;
1428;SDS011;708;51.442;7.016;2022-07-11T14:22:30;1.53;;;1.20;;
1428;SDS011;708;51.442;7.016;2022-07-11T14:24:57;2.50;;;1.30;;
1428;SDS011;708;51.442;7.016;2022-07-11T14:27:23;4.70;;;1.40;;
1428;SDS011;708;51.442;7.016;2022-07-11T14:29:52;2.13;;;1.67;;
1428;SDS011;708;51.442;7.016;2022-07-11T14:32:19;3.60;;;2.33;;
1428;SDS011;708;51.442;7.016;2022-07-11T14:34:46;2.63;;;1.53;;
1428;SDS011;708;51.442;7.016;2022-07-11T14:37:13;1.77;;;1.27;;
1428;SDS011;708;51.442;7.016;2022-07-11T14:39:40;5.30;;;1.53;;
1428;SDS011;708;51.442;7.016;2022-07-11T14:42:07;3.37;;;1.27;;
1428;SDS011;708;51.442;7.016;2022-07-11T14:44:34;1.90;;;1.70;;
1428;SDS011;708;51.442;7.016;2022-07-11T14:47:03;2.20;;;1.90;;
1428;SDS011;708;51.442;7.016;2022-07-11T14:49:30;1.70;;;1.30;;
1428;SDS011;708;51.442;7.016;2022-07-11T14:51:57;2.57;;;1.50;;
1428;SDS011;708;51.442;7.016;2022-07-11T14:54:24;2.17;;;1.47;;
1428;SDS011;708;51.442;7.016;2022-07-11T14:56:52;3.53;;;1.47;;
1428;SDS011;708;51.442;7.016;2022-07-11T14:59:19;2.00;;;1.60;;
1428;SDS011;708;51.442;7.016;2022-07-11T15:01:47;1.80;;;1.33;;
1428;SDS011;708;51.442;7.016;2022-07-11T15:04:15;2.90;;;1.50;;
1428;SDS011;708;51.442;7.016;2022-07-11T15:06:42;2.10;;;1.40;;
1428;SDS011;708;51.442;7.016;2022-07-11T15:09:27;2.10;;;1.40;;
1428;SDS011;708;51.442;7.016;2022-07-11T15:12:11;2.10;;;1.30;;
1428;SDS011;708;51.442;7.016;2022-07-11T15:14:49;2.00;;;1.40;;
1428;SDS011;708;51.442;7.016;2022-07-11T15:17:17;1.50;;;1.10;;
1428;SDS011;708;51.442;7.016;2022-07-11T15:19:45;2.90;;;1.47;;
1428;SDS011;708;51.442;7.016;2022-07-11T15:22:12;1.93;;;1.10;;
1428;SDS011;708;51.442;7.016;2022-07-11T15:24:39;2.10;;;1.83;;
1428;SDS011;708;51.442;7.016;2022-07-11T15:27:06;4.10;;;1.90;;
1428;SDS011;708;51.442;7.016;2022-07-11T15:29:33;1.90;;;1.60;;
1428;SDS011;708;51.442;7.016;2022-07-11T15:32:00;3.40;;;2.10;;
1428;SDS011;708;51.442;7.016;2022-07-11T15:34:27;2.57;;;2.37;;
1428;SDS011;708;51.442;7.016;2022-07-11T15:36:56;3.23;;;2.20;;
1428;SDS011;708;51.442;7.016;2022-07-11T15:39:22;4.30;;;2.80;;
1428;SDS011;708;51.442;7.016;2022-07-11T15:41:49;3.13;;;2.63;;
1428;SDS011;708;51.442;7.016;2022-07-11T15:44:16;3.87;;;3.57;;
1428;SDS011;708;51.442;7.016;2022-07-11T15:46:43;3.30;;;3.00;;
1428;SDS011;708;51.442;7.016;2022-07-11T15:49:10;6.03;;;3.57;;